ADDS TAF Board (Experimental) INFO Settings
IDs: Format: Expanded Condensed

KTPA - Tampa Intl Arpt, FL, US

Issued at 1146 UTC 28 Sep 2016
Updated at 1340 UTC 28 Sep 2016
Time1253Z 28/14Z 28/15Z 28/16Z 28/17Z 28/18Z 28/19Z 28/20Z 28/21Z 28/22Z 28/23Z 29/00Z 29/01Z 29/02Z
Type OBS PRVL PRVL PRVL PRVL PRVL PRVL PRVL PRVL PRVL PRVL PRVL PRVL PRVL
VIS 10 >6 >6 >6 >6 >6 >6 >6 >6 >6 >6 >6 >6 >6
CIG -- -- -- -- 100 100 100 100 100 100 100 70 70 70
Cover SCT FEW FEW FEW BKN BKN BKN BKN BKN BKN BKN BKN BKN BKN
FltCat VFR VFR VFR VFR VFR VFR VFR VFR VFR VFR VFR VFR VFR VFR
WX -- -- -- -- VCTS VCTS VCTS VCTS VCTS VCTS VCTS -- -- --
WDir 180 140 140 140 230 230 230 230 230 230 230 230 230 230
WSpd 5 6 6 6 7 7 7 7 7 7 7 4 4 4
WGst -- -- -- -- -- -- -- -- -- -- -- -- -- --
R01/19
XWnd -0 -4 -4 -4 5 5 5 5 5 5 5 3 3 3
HWnd -5 -4 -4 -4 -5 -5 -5 -5 -5 -5 -5 -3 -3 -3
R10/28
XWnd -5 -4 -4 -4 -5 -5 -5 -5 -5 -5 -5 -3 -3 -3
HWnd 0 4 4 4 -5 -5 -5 -5 -5 -5 -5 -3 -3 -3

Raw TAF
KTPA 281146Z 2812/2912 14006KT P6SM FEW030
  FM281700 23007KT P6SM VCTS SCT025CB BKN100
  FM290000 23004KT P6SM SCT040 BKN070
  FM290600 21005KT P6SM VCSH SCT015 BKN050


Raw METAR
KTPA 281253Z COR 18005KT 10SM FEW018 FEW030 SCT150 SCT250 28/24 A3000 RMK AO2 SLP157 TCU DSNT W AND NW T02780239
KTPA 281153Z 15003KT 10SM FEW028 FEW090 SCT250 27/24 A2999 RMK AO2 SLP153 TCU DSNT S AND NW T02670239 10267 20250 51010
KTPA 281053Z 14006KT 10SM FEW015 FEW080 26/24 A2997 RMK AO2 SLP150 T02560239

METAR Board
Radar Display
Forecast Discussion

TAF Board Legend

Potential Impact
Threat None Slight Moderate High
Visibility (sm) ≥5.1 5.1>X≥3 3>X≥1 <1
Ceiling (100 ft) ≥30.1 30.1>X≥10 10>X≥5 <5
Wind Speed (kt) <10 10≤X<20 20≤X<30 ≥30
Wind Gust (kt) <15 15≤X<25 25≤X<35 ≥35
Weather No Wx Reported VCTS,-TS,-FZRA,SN TS,FZRA +TS,+FZRA,+SN